sensor_id;sensor_type;location;lat;lon;timestamp;pressure;altitude;pressure_sealevel;temperature;humidity
40788;BME280;26497;52.494;7.546;2023-06-14T00:02:24;100989.63;;;21.19;37.18
40788;BME280;26497;52.494;7.546;2023-06-14T00:04:51;100982.84;;;21.11;37.42
40788;BME280;26497;52.494;7.546;2023-06-14T00:07:33;100991.75;;;21.11;37.40
40788;BME280;26497;52.494;7.546;2023-06-14T00:10:04;100996.13;;;21.14;37.41
40788;BME280;26497;52.494;7.546;2023-06-14T00:12:31;100982.97;;;21.08;37.45
40788;BME280;26497;52.494;7.546;2023-06-14T00:14:58;100981.50;;;20.99;37.83
40788;BME280;26497;52.494;7.546;2023-06-14T00:17:27;100995.84;;;20.98;37.91
40788;BME280;26497;52.494;7.546;2023-06-14T00:19:55;100986.84;;;20.99;37.71
40788;BME280;26497;52.494;7.546;2023-06-14T00:22:25;100995.09;;;20.94;37.91
40788;BME280;26497;52.494;7.546;2023-06-14T00:24:54;100987.28;;;20.88;37.79
40788;BME280;26497;52.494;7.546;2023-06-14T00:27:22;100989.28;;;20.83;38.23
40788;BME280;26497;52.494;7.546;2023-06-14T00:29:49;100985.91;;;20.76;38.51
40788;BME280;26497;52.494;7.546;2023-06-14T00:32:16;100993.25;;;20.71;38.42
40788;BME280;26497;52.494;7.546;2023-06-14T00:34:43;100991.38;;;20.73;38.70
40788;BME280;26497;52.494;7.546;2023-06-14T00:37:10;100989.03;;;20.63;38.77
40788;BME280;26497;52.494;7.546;2023-06-14T00:39:39;100986.59;;;20.57;39.05
40788;BME280;26497;52.494;7.546;2023-06-14T00:42:06;100996.50;;;20.55;39.09
40788;BME280;26497;52.494;7.546;2023-06-14T00:44:33;101001.28;;;20.47;39.19
40788;BME280;26497;52.494;7.546;2023-06-14T00:47:01;101003.25;;;20.42;39.45
40788;BME280;26497;52.494;7.546;2023-06-14T00:49:29;100993.81;;;20.31;39.82
40788;BME280;26497;52.494;7.546;2023-06-14T00:51:56;101001.88;;;20.30;39.63
40788;BME280;26497;52.494;7.546;2023-06-14T00:56:52;101004.41;;;20.35;39.66
40788;BME280;26497;52.494;7.546;2023-06-14T00:59:19;101004.66;;;20.27;39.96
40788;BME280;26497;52.494;7.546;2023-06-14T01:01:46;101003.09;;;20.21;39.76
40788;BME280;26497;52.494;7.546;2023-06-14T01:04:14;101003.34;;;20.13;40.19
40788;BME280;26497;52.494;7.546;2023-06-14T01:06:49;101010.41;;;20.16;40.34
40788;BME280;26497;52.494;7.546;2023-06-14T01:09:30;101006.19;;;20.09;40.54
40788;BME280;26497;52.494;7.546;2023-06-14T01:12:11;101006.22;;;20.07;40.43
40788;BME280;26497;52.494;7.546;2023-06-14T01:14:41;101011.69;;;20.04;40.62
40788;BME280;26497;52.494;7.546;2023-06-14T01:17:09;101014.25;;;20.07;40.41
40788;BME280;26497;52.494;7.546;2023-06-14T01:19:41;101010.22;;;19.95;40.83
40788;BME280;26497;52.494;7.546;2023-06-14T01:22:10;101015.72;;;19.91;40.82
40788;BME280;26497;52.494;7.546;2023-06-14T01:24:39;101018.63;;;19.83;41.07
40788;BME280;26497;52.494;7.546;2023-06-14T01:27:10;101017.69;;;19.84;41.25
40788;BME280;26497;52.494;7.546;2023-06-14T01:29:38;101019.66;;;19.79;41.42
40788;BME280;26497;52.494;7.546;2023-06-14T01:32:11;101023.47;;;19.71;41.69
40788;BME280;26497;52.494;7.546;2023-06-14T01:34:39;101026.13;;;19.71;41.60
40788;BME280;26497;52.494;7.546;2023-06-14T01:37:06;101023.81;;;19.60;41.90
40788;BME280;26497;52.494;7.546;2023-06-14T01:39:35;101024.69;;;19.61;41.72
40788;BME280;26497;52.494;7.546;2023-06-14T01:42:05;101026.88;;;19.48;42.39
40788;BME280;26497;52.494;7.546;2023-06-14T01:44:33;101019.78;;;19.47;42.51
40788;BME280;26497;52.494;7.546;2023-06-14T01:47:00;101034.19;;;19.43;42.58
40788;BME280;26497;52.494;7.546;2023-06-14T01:49:28;101028.09;;;19.38;42.74
40788;BME280;26497;52.494;7.546;2023-06-14T01:51:55;101030.25;;;19.26;43.05
40788;BME280;26497;52.494;7.546;2023-06-14T01:54:22;101021.63;;;19.17;43.19
40788;BME280;26497;52.494;7.546;2023-06-14T01:56:51;101033.47;;;19.08;43.56
40788;BME280;26497;52.494;7.546;2023-06-14T01:59:20;101030.84;;;19.06;43.52
40788;BME280;26497;52.494;7.546;2023-06-14T02:01:47;101035.50;;;18.99;43.85
40788;BME280;26497;52.494;7.546;2023-06-14T02:04:14;101034.63;;;18.99;44.09
40788;BME280;26497;52.494;7.546;2023-06-14T02:06:41;101030.25;;;18.96;44.15
40788;BME280;26497;52.494;7.546;2023-06-14T02:09:08;101027.63;;;18.93;44.02
40788;BME280;26497;52.494;7.546;2023-06-14T02:11:35;101027.59;;;18.95;44.03
40788;BME280;26497;52.494;7.546;2023-06-14T02:14:02;101032.13;;;18.91;44.08
40788;BME280;26497;52.494;7.546;2023-06-14T02:16:31;101033.22;;;18.85;44.54
40788;BME280;26497;52.494;7.546;2023-06-14T02:18:58;101035.72;;;18.90;44.37
40788;BME280;26497;52.494;7.546;2023-06-14T02:21:25;101037.06;;;18.75;44.89
40788;BME280;26497;52.494;7.546;2023-06-14T02:23:52;101028.97;;;18.78;44.84
40788;BME280;26497;52.494;7.546;2023-06-14T02:26:20;101033.16;;;18.87;44.55
40788;BME280;26497;52.494;7.546;2023-06-14T02:28:48;101033.13;;;18.89;44.60
40788;BME280;26497;52.494;7.546;2023-06-14T02:31:15;101035.06;;;18.83;44.89
40788;BME280;26497;52.494;7.546;2023-06-14T02:33:44;101037.53;;;18.90;44.74
40788;BME280;26497;52.494;7.546;2023-06-14T02:36:11;101031.47;;;18.84;44.84
40788;BME280;26497;52.494;7.546;2023-06-14T02:38:38;101034.25;;;18.80;44.93
40788;BME280;26497;52.494;7.546;2023-06-14T02:41:05;101028.22;;;18.73;45.28
40788;BME280;26497;52.494;7.546;2023-06-14T02:43:32;101041.69;;;18.68;45.41
40788;BME280;26497;52.494;7.546;2023-06-14T02:46:00;101040.31;;;18.55;45.74
40788;BME280;26497;52.494;7.546;2023-06-14T02:48:28;101036.81;;;18.53;45.86
40788;BME280;26497;52.494;7.546;2023-06-14T02:50:56;101038.59;;;18.52;46.01
40788;BME280;26497;52.494;7.546;2023-06-14T02:53:23;101030.56;;;18.52;46.07
40788;BME280;26497;52.494;7.546;2023-06-14T02:55:51;101043.84;;;18.55;46.18
40788;BME280;26497;52.494;7.546;2023-06-14T02:58:18;101041.94;;;18.59;45.98
40788;BME280;26497;52.494;7.546;2023-06-14T03:00:45;101046.34;;;18.62;46.02
40788;BME280;26497;52.494;7.546;2023-06-14T03:03:13;101052.25;;;18.41;46.60
40788;BME280;26497;52.494;7.546;2023-06-14T03:05:44;101055.69;;;18.45;46.70
40788;BME280;26497;52.494;7.546;2023-06-14T03:08:14;101066.44;;;18.42;46.92
40788;BME280;26497;52.494;7.546;2023-06-14T03:10:45;101064.69;;;18.41;47.01
40788;BME280;26497;52.494;7.546;2023-06-14T03:13:13;101069.13;;;18.42;47.14
40788;BME280;26497;52.494;7.546;2023-06-14T03:15:40;101072.69;;;18.42;47.00
40788;BME280;26497;52.494;7.546;2023-06-14T03:18:08;101069.09;;;18.44;47.04
40788;BME280;26497;52.494;7.546;2023-06-14T03:20:35;101069.34;;;18.34;47.42
40788;BME280;26497;52.494;7.546;2023-06-14T03:23:03;101069.22;;;18.39;47.40
40788;BME280;26497;52.494;7.546;2023-06-14T03:25:33;101068.97;;;18.48;47.17
40788;BME280;26497;52.494;7.546;2023-06-14T03:28:01;101075.19;;;18.49;47.10
40788;BME280;26497;52.494;7.546;2023-06-14T03:30:31;101079.63;;;18.50;47.41
40788;BME280;26497;52.494;7.546;2023-06-14T03:32:58;101076.19;;;18.45;47.45
40788;BME280;26497;52.494;7.546;2023-06-14T03:35:27;101082.56;;;18.39;47.68
40788;BME280;26497;52.494;7.546;2023-06-14T03:37:55;101080.81;;;18.38;47.95
40788;BME280;26497;52.494;7.546;2023-06-14T03:40:22;101079.78;;;18.44;47.92
40788;BME280;26497;52.494;7.546;2023-06-14T03:42:54;101085.03;;;18.47;47.93
40788;BME280;26497;52.494;7.546;2023-06-14T03:45:21;101093.84;;;18.50;47.83
40788;BME280;26497;52.494;7.546;2023-06-14T03:47:48;101083.13;;;18.52;47.96
40788;BME280;26497;52.494;7.546;2023-06-14T03:50:17;101082.97;;;18.56;47.95
40788;BME280;26497;52.494;7.546;2023-06-14T03:52:44;101093.50;;;18.63;47.61
40788;BME280;26497;52.494;7.546;2023-06-14T03:55:12;101103.84;;;18.75;47.54
40788;BME280;26497;52.494;7.546;2023-06-14T03:57:39;101110.13;;;18.74;47.63
40788;BME280;26497;52.494;7.546;2023-06-14T04:00:10;101105.38;;;18.84;47.50
40788;BME280;26497;52.494;7.546;2023-06-14T04:02:38;101112.38;;;18.88;47.34
40788;BME280;26497;52.494;7.546;2023-06-14T04:05:06;101110.56;;;18.90;47.50
40788;BME280;26497;52.494;7.546;2023-06-14T04:07:34;101105.91;;;18.98;47.37
40788;BME280;26497;52.494;7.546;2023-06-14T04:10:07;101117.25;;;19.07;47.41
40788;BME280;26497;52.494;7.546;2023-06-14T04:12:34;101110.91;;;19.11;47.04
40788;BME280;26497;52.494;7.546;2023-06-14T04:15:02;101120.25;;;19.26;46.78
40788;BME280;26497;52.494;7.546;2023-06-14T04:17:33;101119.97;;;19.35;46.51
40788;BME280;26497;52.494;7.546;2023-06-14T04:20:00;101129.53;;;19.44;46.60
40788;BME280;26497;52.494;7.546;2023-06-14T04:22:28;101118.84;;;19.72;46.67
40788;BME280;26497;52.494;7.546;2023-06-14T04:24:56;101125.78;;;20.60;45.39
40788;BME280;26497;52.494;7.546;2023-06-14T04:27:23;101130.22;;;21.84;43.00
40788;BME280;26497;52.494;7.546;2023-06-14T04:29:52;101141.25;;;23.05;40.16
40788;BME280;26497;52.494;7.546;2023-06-14T04:32:23;101135.13;;;24.16;37.44
40788;BME280;26497;52.494;7.546;2023-06-14T04:34:54;101133.94;;;25.10;35.53
40788;BME280;26497;52.494;7.546;2023-06-14T04:37:22;101135.47;;;25.96;34.39
40788;BME280;26497;52.494;7.546;2023-06-14T04:39:49;101133.47;;;26.76;32.35
40788;BME280;26497;52.494;7.546;2023-06-14T04:42:17;101139.19;;;27.44;31.28
40788;BME280;26497;52.494;7.546;2023-06-14T04:44:46;101139.25;;;27.99;30.68
40788;BME280;26497;52.494;7.546;2023-06-14T04:47:14;101142.16;;;28.51;29.81
40788;BME280;26497;52.494;7.546;2023-06-14T04:49:42;101137.44;;;28.80;28.88
40788;BME280;26497;52.494;7.546;2023-06-14T04:52:11;101137.88;;;29.00;28.45
40788;BME280;26497;52.494;7.546;2023-06-14T04:54:39;101141.53;;;29.25;27.72
40788;BME280;26497;52.494;7.546;2023-06-14T04:57:08;101134.88;;;29.55;27.54
40788;BME280;26497;52.494;7.546;2023-06-14T04:59:42;101136.81;;;29.90;27.01
40788;BME280;26497;52.494;7.546;2023-06-14T05:02:10;101141.31;;;30.15;26.30
40788;BME280;26497;52.494;7.546;2023-06-14T05:04:37;101144.72;;;30.42;26.21
40788;BME280;26497;52.494;7.546;2023-06-14T05:07:06;101144.53;;;30.56;25.43
40788;BME280;26497;52.494;7.546;2023-06-14T05:09:35;101142.91;;;30.54;25.30
40788;BME280;26497;52.494;7.546;2023-06-14T05:12:03;101152.16;;;30.87;25.19
40788;BME280;26497;52.494;7.546;2023-06-14T05:14:30;101146.63;;;31.11;24.84
40788;BME280;26497;52.494;7.546;2023-06-14T05:16:57;101160.50;;;31.31;24.61
40788;BME280;26497;52.494;7.546;2023-06-14T05:19:25;101157.13;;;31.73;24.63
40788;BME280;26497;52.494;7.546;2023-06-14T05:21:52;101158.88;;;32.18;24.06
40788;BME280;26497;52.494;7.546;2023-06-14T05:24:19;101153.47;;;32.39;23.73
40788;BME280;26497;52.494;7.546;2023-06-14T05:26:48;101155.19;;;32.83;23.17
40788;BME280;26497;52.494;7.546;2023-06-14T05:29:15;101155.00;;;32.96;22.58
40788;BME280;26497;52.494;7.546;2023-06-14T05:31:42;101155.28;;;33.23;22.48
40788;BME280;26497;52.494;7.546;2023-06-14T05:34:11;101155.91;;;33.68;22.34
40788;BME280;26497;52.494;7.546;2023-06-14T05:36:38;101157.84;;;34.17;21.82
40788;BME280;26497;52.494;7.546;2023-06-14T05:39:06;101149.50;;;34.48;20.92
40788;BME280;26497;52.494;7.546;2023-06-14T05:41:35;101152.22;;;34.58;20.94
40788;BME280;26497;52.494;7.546;2023-06-14T05:44:04;101158.94;;;34.73;20.81
40788;BME280;26497;52.494;7.546;2023-06-14T05:46:31;101158.31;;;35.09;20.73
40788;BME280;26497;52.494;7.546;2023-06-14T05:48:58;101155.84;;;35.43;20.37
40788;BME280;26497;52.494;7.546;2023-06-14T05:51:25;101157.72;;;35.71;19.57
40788;BME280;26497;52.494;7.546;2023-06-14T05:53:53;101158.53;;;35.81;19.55
40788;BME280;26497;52.494;7.546;2023-06-14T05:56:20;101163.75;;;36.03;19.53
40788;BME280;26497;52.494;7.546;2023-06-14T05:58:47;101160.53;;;36.07;19.12
40788;BME280;26497;52.494;7.546;2023-06-14T06:01:16;101176.59;;;36.38;19.09
40788;BME280;26497;52.494;7.546;2023-06-14T06:03:43;101162.19;;;36.36;18.62
40788;BME280;26497;52.494;7.546;2023-06-14T06:06:12;101170.72;;;36.33;18.94
40788;BME280;26497;52.494;7.546;2023-06-14T06:08:39;101169.16;;;36.30;19.31
40788;BME280;26497;52.494;7.546;2023-06-14T06:11:06;101167.47;;;36.56;18.97
40788;BME280;26497;52.494;7.546;2023-06-14T06:13:33;101165.44;;;36.58;19.00
40788;BME280;26497;52.494;7.546;2023-06-14T06:16:01;101172.34;;;36.62;18.97
40788;BME280;26497;52.494;7.546;2023-06-14T06:18:30;101170.97;;;36.84;18.82
40788;BME280;26497;52.494;7.546;2023-06-14T06:20:57;101173.47;;;36.78;18.75
40788;BME280;26497;52.494;7.546;2023-06-14T06:23:24;101170.03;;;36.75;18.37
40788;BME280;26497;52.494;7.546;2023-06-14T06:25:51;101178.78;;;36.53;18.66
40788;BME280;26497;52.494;7.546;2023-06-14T06:28:19;101173.69;;;36.58;19.08
40788;BME280;26497;52.494;7.546;2023-06-14T06:30:46;101172.69;;;36.23;19.33
40788;BME280;26497;52.494;7.546;2023-06-14T06:33:13;101179.19;;;36.22;18.93
40788;BME280;26497;52.494;7.546;2023-06-14T06:35:42;101175.97;;;36.26;19.39
40788;BME280;26497;52.494;7.546;2023-06-14T06:38:09;101179.19;;;36.22;18.75
40788;BME280;26497;52.494;7.546;2023-06-14T06:40:36;101179.34;;;36.38;19.12
40788;BME280;26497;52.494;7.546;2023-06-14T06:43:04;101175.25;;;36.87;18.69
40788;BME280;26497;52.494;7.546;2023-06-14T06:45:31;101189.06;;;37.22;18.18
40788;BME280;26497;52.494;7.546;2023-06-14T06:47:58;101182.34;;;37.16;17.65
40788;BME280;26497;52.494;7.546;2023-06-14T06:50:26;101196.91;;;37.08;18.52
40788;BME280;26497;52.494;7.546;2023-06-14T06:52:54;101188.91;;;37.23;18.56
40788;BME280;26497;52.494;7.546;2023-06-14T06:55:21;101196.56;;;37.11;18.00
40788;BME280;26497;52.494;7.546;2023-06-14T06:57:49;101194.50;;;37.05;18.48
40788;BME280;26497;52.494;7.546;2023-06-14T07:00:19;101200.97;;;37.30;18.07
40788;BME280;26497;52.494;7.546;2023-06-14T07:02:46;101200.13;;;37.38;17.98
40788;BME280;26497;52.494;7.546;2023-06-14T07:05:14;101208.66;;;37.27;18.45
40788;BME280;26497;52.494;7.546;2023-06-14T07:07:41;101200.50;;;37.43;17.70
40788;BME280;26497;52.494;7.546;2023-06-14T07:10:09;101207.16;;;37.67;17.48
40788;BME280;26497;52.494;7.546;2023-06-14T07:12:36;101212.88;;;37.90;17.50
40788;BME280;26497;52.494;7.546;2023-06-14T07:15:06;101209.91;;;38.35;17.16
40788;BME280;26497;52.494;7.546;2023-06-14T07:17:34;101214.03;;;38.39;17.63
40788;BME280;26497;52.494;7.546;2023-06-14T07:20:07;101218.00;;;38.28;16.66
40788;BME280;26497;52.494;7.546;2023-06-14T07:22:39;101212.66;;;38.27;17.03
40788;BME280;26497;52.494;7.546;2023-06-14T07:25:10;101229.38;;;38.75;16.29
40788;BME280;26497;52.494;7.546;2023-06-14T07:27:40;101224.53;;;38.85;16.30
40788;BME280;26497;52.494;7.546;2023-06-14T07:30:09;101234.03;;;38.74;16.52
40788;BME280;26497;52.494;7.546;2023-06-14T07:32:36;101224.06;;;38.40;15.90
40788;BME280;26497;52.494;7.546;2023-06-14T07:35:04;101227.75;;;38.06;16.52
40788;BME280;26497;52.494;7.546;2023-06-14T07:37:32;101225.50;;;37.93;16.70
40788;BME280;26497;52.494;7.546;2023-06-14T07:39:59;101234.00;;;37.73;17.20
40788;BME280;26497;52.494;7.546;2023-06-14T07:42:27;101223.63;;;37.59;17.74
40788;BME280;26497;52.494;7.546;2023-06-14T07:44:55;101231.56;;;38.13;16.73
40788;BME280;26497;52.494;7.546;2023-06-14T07:47:22;101214.91;;;38.48;17.18
40788;BME280;26497;52.494;7.546;2023-06-14T07:49:49;101217.50;;;38.74;16.84
40788;BME280;26497;52.494;7.546;2023-06-14T07:52:16;101225.75;;;38.83;16.04
40788;BME280;26497;52.494;7.546;2023-06-14T07:54:43;101221.97;;;39.08;16.17
40788;BME280;26497;52.494;7.546;2023-06-14T07:57:10;101223.38;;;38.88;16.16
40788;BME280;26497;52.494;7.546;2023-06-14T07:59:39;101223.84;;;38.83;15.78
40788;BME280;26497;52.494;7.546;2023-06-14T08:02:06;101232.13;;;38.50;16.08
40788;BME280;26497;52.494;7.546;2023-06-14T08:04:33;101233.88;;;37.91;16.25
40788;BME280;26497;52.494;7.546;2023-06-14T08:07:01;101223.53;;;37.85;16.07
40788;BME280;26497;52.494;7.546;2023-06-14T08:09:28;101230.84;;;37.25;16.10
40788;BME280;26497;52.494;7.546;2023-06-14T08:11:55;101223.25;;;37.19;16.91
40788;BME280;26497;52.494;7.546;2023-06-14T08:14:22;101223.47;;;37.34;16.49
40788;BME280;26497;52.494;7.546;2023-06-14T08:16:51;101228.25;;;37.50;16.30
40788;BME280;26497;52.494;7.546;2023-06-14T08:19:18;101229.25;;;37.92;16.03
40788;BME280;26497;52.494;7.546;2023-06-14T08:21:45;101223.47;;;38.12;16.08
40788;BME280;26497;52.494;7.546;2023-06-14T08:24:13;101226.41;;;38.18;15.83
40788;BME280;26497;52.494;7.546;2023-06-14T08:26:41;101219.72;;;38.21;16.04
40788;BME280;26497;52.494;7.546;2023-06-14T08:29:08;101220.06;;;37.67;15.80
40788;BME280;26497;52.494;7.546;2023-06-14T08:31:35;101223.53;;;37.42;17.17
40788;BME280;26497;52.494;7.546;2023-06-14T08:34:04;101222.25;;;38.06;16.44
40788;BME280;26497;52.494;7.546;2023-06-14T08:36:32;101233.34;;;38.47;15.73
40788;BME280;26497;52.494;7.546;2023-06-14T08:38:59;101230.44;;;38.41;14.50
40788;BME280;26497;52.494;7.546;2023-06-14T08:41:26;101219.06;;;37.41;16.19
40788;BME280;26497;52.494;7.546;2023-06-14T08:43:56;101227.66;;;37.12;16.06
40788;BME280;26497;52.494;7.546;2023-06-14T08:46:26;101229.72;;;37.44;16.52
40788;BME280;26497;52.494;7.546;2023-06-14T08:48:55;101228.44;;;38.00;16.07
40788;BME280;26497;52.494;7.546;2023-06-14T08:51:25;101214.78;;;37.90;15.13
40788;BME280;26497;52.494;7.546;2023-06-14T08:54:00;101213.81;;;37.99;16.61
40788;BME280;26497;52.494;7.546;2023-06-14T08:56:28;101223.13;;;38.06;16.10
40788;BME280;26497;52.494;7.546;2023-06-14T08:58:56;101215.75;;;38.32;15.50
40788;BME280;26497;52.494;7.546;2023-06-14T09:01:26;101221.78;;;38.35;15.30
40788;BME280;26497;52.494;7.546;2023-06-14T09:03:53;101228.47;;;38.16;15.56
40788;BME280;26497;52.494;7.546;2023-06-14T09:06:24;101230.94;;;37.85;16.42
40788;BME280;26497;52.494;7.546;2023-06-14T09:08:55;101221.47;;;37.71;16.58
40788;BME280;26497;52.494;7.546;2023-06-14T09:11:26;101220.22;;;38.33;15.43
40788;BME280;26497;52.494;7.546;2023-06-14T09:13:54;101223.16;;;38.31;15.68
40788;BME280;26497;52.494;7.546;2023-06-14T09:16:21;101230.19;;;38.26;15.26
40788;BME280;26497;52.494;7.546;2023-06-14T09:18:49;101229.47;;;38.07;17.01
40788;BME280;26497;52.494;7.546;2023-06-14T09:21:17;101235.28;;;37.96;16.65
40788;BME280;26497;52.494;7.546;2023-06-14T09:23:47;101233.00;;;37.83;15.32
40788;BME280;26497;52.494;7.546;2023-06-14T09:26:16;101238.28;;;37.68;15.49
40788;BME280;26497;52.494;7.546;2023-06-14T09:28:45;101240.34;;;37.66;16.69
40788;BME280;26497;52.494;7.546;2023-06-14T09:31:13;101236.09;;;37.80;16.38
40788;BME280;26497;52.494;7.546;2023-06-14T09:33:42;101238.47;;;38.34;16.13
40788;BME280;26497;52.494;7.546;2023-06-14T09:36:16;101242.47;;;38.56;15.33
40788;BME280;26497;52.494;7.546;2023-06-14T09:38:54;101239.38;;;38.43;15.13
40788;BME280;26497;52.494;7.546;2023-06-14T09:41:21;101235.75;;;38.59;15.47
40788;BME280;26497;52.494;7.546;2023-06-14T09:43:58;101232.66;;;38.78;15.74
40788;BME280;26497;52.494;7.546;2023-06-14T09:46:27;101232.81;;;38.77;15.84
40788;BME280;26497;52.494;7.546;2023-06-14T09:48:55;101234.72;;;38.68;15.74
40788;BME280;26497;52.494;7.546;2023-06-14T09:51:23;101231.63;;;38.96;15.71
40788;BME280;26497;52.494;7.546;2023-06-14T09:53:51;101235.06;;;38.98;14.83
40788;BME280;26497;52.494;7.546;2023-06-14T09:56:25;101238.31;;;38.77;15.37
40788;BME280;26497;52.494;7.546;2023-06-14T09:58:57;101240.06;;;39.03;15.43
40788;BME280;26497;52.494;7.546;2023-06-14T10:01:27;101233.81;;;39.17;14.83
40788;BME280;26497;52.494;7.546;2023-06-14T10:04:03;101237.09;;;39.13;15.05
40788;BME280;26497;52.494;7.546;2023-06-14T10:06:34;101243.00;;;38.52;14.92
40788;BME280;26497;52.494;7.546;2023-06-14T10:09:04;101241.00;;;38.02;15.52
40788;BME280;26497;52.494;7.546;2023-06-14T10:11:36;101238.78;;;38.14;15.71
40788;BME280;26497;52.494;7.546;2023-06-14T10:14:05;101244.50;;;38.29;15.93
40788;BME280;26497;52.494;7.546;2023-06-14T10:16:36;101237.09;;;38.30;16.61
40788;BME280;26497;52.494;7.546;2023-06-14T10:19:17;101236.09;;;38.56;14.70
40788;BME280;26497;52.494;7.546;2023-06-14T10:21:56;101231.97;;;38.52;14.98
40788;BME280;26497;52.494;7.546;2023-06-14T10:24:32;101247.69;;;38.00;16.67
40788;BME280;26497;52.494;7.546;2023-06-14T10:27:01;101239.81;;;38.21;15.34
40788;BME280;26497;52.494;7.546;2023-06-14T10:29:29;101239.16;;;38.28;15.50
40788;BME280;26497;52.494;7.546;2023-06-14T10:31:59;101236.75;;;38.25;16.34
40788;BME280;26497;52.494;7.546;2023-06-14T10:34:28;101230.22;;;38.34;15.51
40788;BME280;26497;52.494;7.546;2023-06-14T10:37:04;101236.25;;;38.62;16.05
40788;BME280;26497;52.494;7.546;2023-06-14T10:39:37;101241.44;;;38.49;16.17
40788;BME280;26497;52.494;7.546;2023-06-14T10:42:07;101243.34;;;38.90;15.15
40788;BME280;26497;52.494;7.546;2023-06-14T10:44:40;101235.56;;;39.02;15.43
40788;BME280;26497;52.494;7.546;2023-06-14T10:47:13;101234.72;;;39.01;15.14
40788;BME280;26497;52.494;7.546;2023-06-14T10:49:51;101230.34;;;39.40;15.15
40788;BME280;26497;52.494;7.546;2023-06-14T10:52:23;101226.19;;;39.76;15.51
40788;BME280;26497;52.494;7.546;2023-06-14T10:55:09;101229.66;;;39.78;14.75
40788;BME280;26497;52.494;7.546;2023-06-14T10:57:40;101236.13;;;39.62;15.61
40788;BME280;26497;52.494;7.546;2023-06-14T11:00:09;101225.78;;;39.56;14.40
40788;BME280;26497;52.494;7.546;2023-06-14T11:03:24;101226.47;;;39.01;16.01
40788;BME280;26497;52.494;7.546;2023-06-14T11:05:58;101231.00;;;37.93;15.24
40788;BME280;26497;52.494;7.546;2023-06-14T11:09:10;101231.44;;;38.56;15.63
40788;BME280;26497;52.494;7.546;2023-06-14T11:11:42;101227.81;;;38.39;15.50
40788;BME280;26497;52.494;7.546;2023-06-14T11:14:11;101222.00;;;38.50;15.55
40788;BME280;26497;52.494;7.546;2023-06-14T11:16:42;101232.81;;;38.69;16.19
40788;BME280;26497;52.494;7.546;2023-06-14T11:19:16;101202.69;;;39.00;15.21
40788;BME280;26497;52.494;7.546;2023-06-14T11:21:47;101217.50;;;38.41;15.73
40788;BME280;26497;52.494;7.546;2023-06-14T11:24:14;101223.53;;;38.61;15.59
40788;BME280;26497;52.494;7.546;2023-06-14T11:26:41;101213.19;;;38.30;15.67
40788;BME280;26497;52.494;7.546;2023-06-14T11:29:08;101216.75;;;38.14;15.20
40788;BME280;26497;52.494;7.546;2023-06-14T11:31:37;101212.09;;;37.98;15.65
40788;BME280;26497;52.494;7.546;2023-06-14T11:34:08;101208.53;;;38.31;16.97
40788;BME280;26497;52.494;7.546;2023-06-14T11:36:35;101214.41;;;38.77;15.34
40788;BME280;26497;52.494;7.546;2023-06-14T11:39:03;101205.38;;;39.17;15.31
40788;BME280;26497;52.494;7.546;2023-06-14T11:41:37;101199.66;;;39.27;15.11
40788;BME280;26497;52.494;7.546;2023-06-14T11:44:05;101205.34;;;39.25;15.36
40788;BME280;26497;52.494;7.546;2023-06-14T11:46:33;101206.25;;;39.09;15.14
40788;BME280;26497;52.494;7.546;2023-06-14T11:49:02;101188.91;;;38.92;14.74
40788;BME280;26497;52.494;7.546;2023-06-14T11:51:30;101204.22;;;38.86;15.80
40788;BME280;26497;52.494;7.546;2023-06-14T11:53:58;101187.91;;;38.68;15.79
40788;BME280;26497;52.494;7.546;2023-06-14T11:56:25;101198.03;;;38.59;14.83
40788;BME280;26497;52.494;7.546;2023-06-14T11:58:56;101193.06;;;38.63;15.92
40788;BME280;26497;52.494;7.546;2023-06-14T12:01:23;101187.69;;;38.78;16.33
40788;BME280;26497;52.494;7.546;2023-06-14T12:03:53;101189.41;;;38.96;16.13
40788;BME280;26497;52.494;7.546;2023-06-14T12:06:30;101183.72;;;39.05;15.35
40788;BME280;26497;52.494;7.546;2023-06-14T12:09:04;101178.56;;;38.86;15.12
40788;BME280;26497;52.494;7.546;2023-06-14T12:11:35;101191.34;;;38.45;14.95
40788;BME280;26497;52.494;7.546;2023-06-14T12:14:04;101200.16;;;38.41;16.00
40788;BME280;26497;52.494;7.546;2023-06-14T12:16:33;101185.78;;;39.03;14.89
40788;BME280;26497;52.494;7.546;2023-06-14T12:19:08;101194.97;;;39.44;15.51
40788;BME280;26497;52.494;7.546;2023-06-14T12:21:39;101186.88;;;39.82;15.71
40788;BME280;26497;52.494;7.546;2023-06-14T12:24:07;101188.53;;;40.15;14.57
40788;BME280;26497;52.494;7.546;2023-06-14T12:26:37;101193.69;;;39.94;15.63
40788;BME280;26497;52.494;7.546;2023-06-14T12:29:06;101190.81;;;40.11;14.63
40788;BME280;26497;52.494;7.546;2023-06-14T12:31:34;101183.13;;;40.30;14.85
40788;BME280;26497;52.494;7.546;2023-06-14T12:34:01;101178.41;;;40.53;14.10
40788;BME280;26497;52.494;7.546;2023-06-14T12:36:28;101193.44;;;40.36;14.97
40788;BME280;26497;52.494;7.546;2023-06-14T12:38:58;101175.41;;;40.17;14.66
40788;BME280;26497;52.494;7.546;2023-06-14T12:41:25;101180.97;;;40.40;13.95
40788;BME280;26497;52.494;7.546;2023-06-14T12:43:53;101177.63;;;40.45;14.29
40788;BME280;26497;52.494;7.546;2023-06-14T12:46:20;101182.03;;;40.54;14.00
40788;BME280;26497;52.494;7.546;2023-06-14T12:48:49;101173.78;;;40.31;13.96
40788;BME280;26497;52.494;7.546;2023-06-14T12:51:17;101177.63;;;40.21;14.48
40788;BME280;26497;52.494;7.546;2023-06-14T12:53:44;101179.34;;;39.67;15.10
40788;BME280;26497;52.494;7.546;2023-06-14T12:56:12;101188.72;;;39.50;16.01
40788;BME280;26497;52.494;7.546;2023-06-14T12:58:40;101182.75;;;40.01;14.69
40788;BME280;26497;52.494;7.546;2023-06-14T13:01:07;101188.22;;;40.41;13.74
40788;BME280;26497;52.494;7.546;2023-06-14T13:03:34;101186.97;;;40.20;15.48